Time;durP1;ratioP1;P1;durP2;ratioP2;P2;SDS_P1;SDS_P2;PMS_P1;PMS_P2;Temp;Humidity;BMP_temperature;BMP_pressure;BME280_temperature;BME280_humidity;BME280_pressure;Samples;Min_cycle;Max_cycle;Signal;HPM_P1;HPM_P2
2022/12/10 00:01:47;;;;;;;65.88;23.83;;;11.90;99.90;;;;;;5077628;28;20028;-80
2022/12/10 00:04:13;;;;;;;84.47;30.48;;;11.80;99.90;;;;;;5075679;28;20017;-80
2022/12/10 00:06:40;;;;;;;85.95;35.15;;;11.80;99.90;;;;;;5076794;28;20024;-79
2022/12/10 00:09:11;;;;;;;103.90;39.67;;;11.80;99.90;;;;;;5075979;28;20360;-80
2022/12/10 00:11:37;;;;;;;68.50;26.33;;;11.80;99.90;;;;;;5076565;28;20082;-80
2022/12/10 00:14:03;;;;;;;60.30;19.92;;;11.80;99.90;;;;;;5075376;28;20032;-79
2022/12/10 00:16:30;;;;;;;58.60;20.10;;;11.90;99.90;;;;;;5075051;28;20044;-79
2022/12/10 00:18:56;;;;;;;59.40;21.10;;;11.80;99.90;;;;;;5076437;28;20386;-80
2022/12/10 00:21:28;;;;;;;65.75;21.95;;;11.80;99.90;;;;;;5075506;28;20086;-80
2022/12/10 00:23:54;;;;;;;;;;;11.80;99.90;;;;;;5077248;28;20107;-81
2022/12/10 00:26:23;;;;;;;79.70;29.77;;;11.80;99.90;;;;;;5075319;28;19900;-80
2022/12/10 00:28:49;;;;;;;84.03;32.95;;;11.80;99.90;;;;;;5076123;28;20021;-80
2022/12/10 00:31:20;;;;;;;121.82;40.15;;;11.80;99.90;;;;;;5076833;28;20023;-80
2022/12/10 00:33:47;;;;;;;438.17;134.43;;;11.80;99.90;;;;;;5076589;28;20107;-79
2022/12/10 00:36:14;;;;;;;206.23;67.07;;;11.80;99.90;;;;;;5076313;28;20169;-79
2022/12/10 00:38:42;;;;;;;144.00;49.75;;;11.70;99.90;;;;;;5075162;28;20032;-79
2022/12/10 00:41:08;;;;;;;112.80;38.35;;;11.60;99.90;;;;;;5076127;28;20016;-79
2022/12/10 00:43:35;;;;;;;103.53;35.78;;;11.60;99.90;;;;;;5076182;28;20020;-81
2022/12/10 00:46:01;;;;;;;120.78;39.42;;;11.60;99.90;;;;;;5076244;28;20111;-80
2022/12/10 00:48:26;;;;;;;102.25;33.30;;;11.60;99.90;;;;;;5076040;28;20021;-79
2022/12/10 00:51:00;;;;;;;93.40;28.63;;;11.60;99.90;;;;;;5075929;28;20039;-79
2022/12/10 00:53:27;;;;;;;64.18;25.38;;;11.60;99.90;;;;;;5075011;28;20032;-80
2022/12/10 00:55:54;;;;;;;57.33;25.65;;;11.50;99.90;;;;;;5075892;28;20062;-80
2022/12/10 00:58:20;;;;;;;66.07;27.13;;;11.50;99.90;;;;;;5076381;28;20056;-79
2022/12/10 01:00:47;;;;;;;67.40;26.42;;;11.50;99.90;;;;;;5075973;28;20473;-80
2022/12/10 01:03:13;;;;;;;75.68;25.48;;;11.50;99.90;;;;;;5075512;28;20029;-79
2022/12/10 01:05:39;;;;;;;74.78;27.58;;;11.60;99.90;;;;;;5075959;28;20044;-81
2022/12/10 01:08:05;;;;;;;81.03;29.23;;;11.60;99.90;;;;;;5075614;28;20360;-80
2022/12/10 01:10:31;;;;;;;84.18;29.85;;;11.60;99.90;;;;;;5074304;28;20028;-80
2022/12/10 01:12:57;;;;;;;91.10;31.85;;;11.60;99.90;;;;;;5075843;28;20363;-81
2022/12/10 01:15:22;;;;;;;97.63;34.05;;;11.60;99.90;;;;;;5075734;28;20074;-80
2022/12/10 01:17:48;;;;;;;95.68;34.30;;;11.60;99.90;;;;;;5075684;28;20458;-80
2022/12/10 01:20:14;;;;;;;94.60;34.88;;;11.60;99.90;;;;;;5075698;28;20021;-80
2022/12/10 01:22:40;;;;;;;82.43;32.30;;;11.60;99.90;;;;;;5075574;28;20028;-80
2022/12/10 01:25:06;;;;;;;79.70;28.67;;;11.60;99.90;;;;;;5075075;28;20021;-80
2022/12/10 01:27:31;;;;;;;82.00;30.70;;;11.60;99.90;;;;;;5074180;28;20101;-80
2022/12/10 01:29:57;;;;;;;68.90;25.50;;;11.60;99.90;;;;;;5075544;28;20054;-80
2022/12/10 01:32:23;;;;;;;72.40;26.10;;;11.60;99.90;;;;;;5074984;28;20024;-80
2022/12/10 01:34:49;;;;;;;69.47;27.60;;;11.70;99.90;;;;;;5075376;28;20032;-80
2022/12/10 01:37:14;;;;;;;110.93;43.35;;;11.70;99.90;;;;;;5075581;28;20028;-80
2022/12/10 01:39:40;;;;;;;152.75;55.70;;;11.70;99.90;;;;;;5074835;28;20020;-80
2022/12/10 01:42:06;;;;;;;82.90;27.52;;;11.80;99.90;;;;;;5075130;28;20028;-80
2022/12/10 01:44:32;;;;;;;71.40;25.63;;;11.80;99.90;;;;;;5073770;28;20038;-79
2022/12/10 01:47:00;;;;;;;79.95;29.25;;;11.90;99.90;;;;;;5074865;28;20020;-80
2022/12/10 01:49:33;;;;;;;49.72;21.30;;;11.80;99.90;;;;;;5075274;28;20025;-81
2022/12/10 01:51:59;;;;;;;66.18;25.05;;;11.90;99.90;;;;;;5074533;28;20580;-80
2022/12/10 01:54:38;;;;;;;61.80;26.70;;;11.90;99.90;;;;;;5073748;28;20028;-80
2022/12/10 01:57:07;;;;;;;112.22;40.17;;;11.90;99.90;;;;;;5073553;28;20078;-80
2022/12/10 01:59:35;;;;;;;67.07;22.38;;;11.90;99.90;;;;;;5074383;28;20028;-80
2022/12/10 02:02:26;;;;;;;52.13;18.25;;;11.90;99.90;;;;;;5073530;28;20093;-80
2022/12/10 02:05:08;;;;;;;43.17;15.52;;;11.90;99.90;;;;;;5074743;28;20039;-80
2022/12/10 02:07:51;;;;;;;49.80;16.98;;;11.90;99.90;;;;;;5074611;28;20103;-80
2022/12/10 02:10:53;;;;;;;48.03;17.08;;;11.90;99.90;;;;;;5074250;28;20091;-80
2022/12/10 02:13:38;;;;;;;50.40;16.65;;;11.80;99.90;;;;;;5074639;28;20463;-79
2022/12/10 02:16:26;;;;;;;42.33;16.27;;;11.80;99.90;;;;;;5074404;28;20494;-80
2022/12/10 02:19:23;;;;;;;48.90;16.50;;;11.70;99.90;;;;;;5073977;28;20020;-79
2022/12/10 02:21:51;;;;;;;53.58;22.98;;;11.70;99.90;;;;;;5074307;28;20039;-80
2022/12/10 02:24:27;;;;;;;54.75;21.38;;;11.70;99.90;;;;;;5074325;28;20486;-80
2022/12/10 02:27:08;;;;;;;60.65;24.27;;;11.60;99.90;;;;;;5074283;28;20023;-82
2022/12/10 02:29:35;;;;;;;55.00;23.27;;;11.50;99.90;;;;;;5073097;28;20469;-80
2022/12/10 02:32:10;;;;;;;45.20;19.65;;;11.50;99.90;;;;;;5072829;28;20119;-80
2022/12/10 02:34:41;;;;;;;46.08;16.75;;;11.50;99.90;;;;;;5073881;28;20029;-80
2022/12/10 02:37:15;;;;;;;32.15;13.85;;;11.50;99.90;;;;;;5073014;28;20025;-79
2022/12/10 02:39:46;;;;;;;32.58;14.93;;;11.50;99.90;;;;;;5074165;28;20455;-79
2022/12/10 02:42:15;;;;;;;30.63;8.27;;;11.50;99.90;;;;;;5074028;28;20020;-79
2022/12/10 02:44:42;;;;;;;23.70;8.18;;;11.50;99.90;;;;;;5074037;28;20535;-80
2022/12/10 02:47:10;;;;;;;33.03;8.07;;;11.50;99.90;;;;;;5073822;28;20024;-79
2022/12/10 02:49:38;;;;;;;24.45;7.22;;;11.50;99.90;;;;;;5074142;28;20024;-81
2022/12/10 02:52:11;;;;;;;30.10;6.88;;;11.50;99.90;;;;;;5073595;28;20027;-80
2022/12/10 02:54:48;;;;;;;25.48;8.35;;;11.50;99.90;;;;;;5073934;28;20462;-79
2022/12/10 02:57:23;;;;;;;33.00;8.70;;;11.50;99.90;;;;;;5072759;28;20100;-80
2022/12/10 03:00:06;;;;;;;25.17;7.53;;;11.60;99.90;;;;;;5073838;28;20482;-80
2022/12/10 03:02:56;;;;;;;27.35;9.88;;;11.60;99.90;;;;;;5073682;28;20027;-79
2022/12/10 03:05:33;;;;;;;20.58;8.65;;;11.60;99.90;;;;;;5073667;28;20050;-80
2022/12/10 03:08:11;;;;;;;28.30;10.82;;;11.60;99.90;;;;;;5073914;28;20021;-79
2022/12/10 03:10:47;;;;;;;35.00;11.30;;;11.60;99.90;;;;;;5073649;28;20028;-79
2022/12/10 03:13:16;;;;;;;35.20;10.52;;;11.60;99.90;;;;;;5073489;28;20024;-81
2022/12/10 03:15:44;;;;;;;32.05;10.95;;;11.70;99.90;;;;;;5073609;28;20027;-79
2022/12/10 03:18:12;;;;;;;24.70;9.30;;;11.70;99.90;;;;;;5074099;28;20054;-79
2022/12/10 03:20:42;;;;;;;31.95;10.00;;;11.70;99.90;;;;;;5072514;28;20020;-80
2022/12/10 03:23:12;;;;;;;23.85;8.18;;;11.70;99.90;;;;;;5072254;28;20036;-80
2022/12/10 03:25:38;;;;;;;26.02;8.77;;;11.60;99.90;;;;;;5072418;28;20032;-79
2022/12/10 03:28:04;;;;;;;25.15;10.32;;;11.60;99.90;;;;;;5073631;28;20021;-80
2022/12/10 03:30:35;;;;;;;42.28;15.90;;;11.60;99.90;;;;;;5074245;28;20020;-80
2022/12/10 03:33:01;;;;;;;43.45;16.33;;;11.60;99.90;;;;;;5077477;28;20451;-80
2022/12/10 03:35:27;;;;;;;35.08;13.23;;;11.50;99.90;;;;;;5076317;28;20016;-81
2022/12/10 03:37:53;;;;;;;34.47;12.68;;;11.50;99.90;;;;;;5077689;28;20067;-79
2022/12/10 03:40:23;;;;;;;25.88;9.90;;;11.50;99.90;;;;;;5077615;28;20028;-80
2022/12/10 03:42:49;;;;;;;24.90;9.20;;;11.50;99.90;;;;;;5077841;28;20013;-80
2022/12/10 03:45:15;;;;;;;28.55;10.32;;;11.50;99.90;;;;;;5077293;28;20409;-80
2022/12/10 03:47:41;;;;;;;33.83;13.15;;;11.60;99.90;;;;;;5077073;28;20020;-80
2022/12/10 03:50:08;;;;;;;33.65;12.95;;;11.70;99.90;;;;;;5077445;28;20077;-80
2022/12/10 03:52:34;;;;;;;38.15;13.60;;;11.70;99.90;;;;;;5077059;28;20444;-81
2022/12/10 03:54:59;;;;;;;28.58;12.23;;;11.80;99.90;;;;;;5077413;28;20033;-80
2022/12/10 03:57:25;;;;;;;30.80;9.85;;;11.80;99.90;;;;;;5076786;28;20465;-79
2022/12/10 03:59:51;;;;;;;26.90;10.25;;;11.80;99.90;;;;;;5077362;28;20055;-80
2022/12/10 04:02:17;;;;;;;23.52;8.40;;;11.80;99.90;;;;;;5076864;28;20064;-80
2022/12/10 04:04:42;;;;;;;24.92;7.50;;;11.80;99.90;;;;;;5076927;28;20017;-80
2022/12/10 04:07:08;;;;;;;23.38;9.45;;;11.80;99.90;;;;;;5076826;28;20021;-80
2022/12/10 04:09:34;;;;;;;30.42;10.18;;;11.90;99.90;;;;;;5077241;28;20021;-78
2022/12/10 04:12:00;;;;;;;58.17;20.05;;;11.90;99.90;;;;;;5076408;28;20459;-80
2022/12/10 04:17:12;;;;;;;34.22;13.30;;;12.00;99.90;;;;;;5076878;28;20473;-80
2022/12/10 04:19:38;;;;;;;31.60;12.23;;;12.00;99.90;;;;;;5075393;28;20067;-79
2022/12/10 04:27:38;;;;;;;43.28;17.00;;;12.30;99.90;;;;;;5076524;28;20027;-80
2022/12/10 04:30:06;;;;;;;60.63;21.48;;;12.30;99.90;;;;;;5075261;28;20028;-80
2022/12/10 04:32:32;;;;;;;76.40;26.00;;;12.40;99.90;;;;;;5076054;28;20062;-79
2022/12/10 04:34:58;;;;;;;68.70;25.73;;;12.40;99.90;;;;;;5075214;28;20033;-81
2022/12/10 04:37:26;;;;;;;70.53;26.60;;;12.50;99.90;;;;;;5075116;28;20052;-79
2022/12/10 04:39:52;;;;;;;47.40;16.75;;;12.50;99.90;;;;;;5074940;28;20025;-80
2022/12/10 04:42:19;;;;;;;55.88;21.92;;;12.50;99.90;;;;;;5074843;28;20031;-80
2022/12/10 04:44:45;;;;;;;41.70;15.45;;;12.50;99.90;;;;;;5076706;28;20035;-80
2022/12/10 04:47:11;;;;;;;41.30;15.52;;;12.50;99.90;;;;;;5075961;28;20017;-80
2022/12/10 04:49:37;;;;;;;39.95;14.02;;;12.50;99.90;;;;;;5075103;28;20024;-79
2022/12/10 04:52:04;;;;;;;39.35;15.15;;;12.50;99.90;;;;;;5075811;28;20024;-81
2022/12/10 04:54:31;;;;;;;48.05;19.85;;;12.50;99.90;;;;;;5074695;28;20025;-80
2022/12/10 04:56:57;;;;;;;41.10;15.88;;;12.50;99.90;;;;;;5076138;28;20352;-79
2022/12/10 04:59:22;;;;;;;90.78;37.33;;;12.50;99.90;;;;;;5076102;28;20028;-78
2022/12/10 05:01:48;;;;;;;71.20;28.98;;;12.50;99.90;;;;;;5075912;28;20063;-79
2022/12/10 05:04:16;;;;;;;100.63;40.33;;;12.60;99.90;;;;;;5076051;28;20024;-80
2022/12/10 05:06:43;;;;;;;60.80;23.38;;;12.60;99.90;;;;;;5075922;28;20103;-79
2022/12/10 05:09:11;;;;;;;68.63;28.60;;;12.60;99.90;;;;;;5076044;28;20025;-79
2022/12/10 05:11:37;;;;;;;122.93;51.67;;;12.60;99.90;;;;;;5074577;28;20122;-80
2022/12/10 05:14:03;;;;;;;56.47;22.25;;;12.50;99.90;;;;;;5076170;28;20021;-79
2022/12/10 05:16:31;;;;;;;114.65;50.60;;;12.50;99.90;;;;;;5075467;28;20040;-79
2022/12/10 05:18:58;;;;;;;27.60;11.52;;;12.50;99.90;;;;;;5075732;28;20016;-81
2022/12/10 05:23:27;;;;;;;89.47;43.25;;;12.50;99.90;;;;;;5075466;28;20021;-79
2022/12/10 05:24:12;;;;;;;47.70;25.58;;;12.50;99.90;;;;;;5075260;28;20024;-80
2022/12/10 05:26:38;;;;;;;26.70;11.95;;;12.60;99.90;;;;;;5075865;28;20032;-79
2022/12/10 05:29:04;;;;;;;44.67;23.20;;;12.60;99.90;;;;;;5074086;28;20516;-80
2022/12/10 05:31:30;;;;;;;32.80;13.88;;;12.60;99.90;;;;;;5074204;28;20029;-79
2022/12/10 05:33:57;;;;;;;25.55;11.93;;;12.60;99.90;;;;;;5075372;28;20440;-79
2022/12/10 05:36:27;;;;;;;22.52;11.35;;;12.60;99.90;;;;;;5074922;28;20063;-80
2022/12/10 05:38:54;;;;;;;24.23;10.27;;;12.60;99.90;;;;;;5074058;28;20023;-80
2022/12/10 05:41:23;;;;;;;26.00;8.95;;;12.70;99.90;;;;;;5075003;28;20047;-79
2022/12/10 05:43:49;;;;;;;26.10;10.05;;;12.70;99.90;;;;;;5075100;28;20021;-80
2022/12/10 05:46:18;;;;;;;25.60;8.43;;;12.70;99.90;;;;;;5073924;28;20055;-79
2022/12/10 05:48:44;;;;;;;17.40;7.15;;;12.70;99.90;;;;;;5075430;28;20051;-80
2022/12/10 05:51:12;;;;;;;14.02;5.60;;;12.70;99.90;;;;;;5074803;28;20035;-80
2022/12/10 05:53:39;;;;;;;22.25;6.20;;;12.70;99.90;;;;;;5072782;28;20032;-80
2022/12/10 05:56:07;;;;;;;20.73;8.45;;;12.80;99.90;;;;;;5075048;28;20028;-80
2022/12/10 05:58:34;;;;;;;67.03;35.63;;;12.80;99.90;;;;;;5074698;28;20394;-80
2022/12/10 06:01:00;;;;;;;86.45;40.25;;;12.80;99.90;;;;;;5074559;28;20078;-79
2022/12/10 06:03:29;;;;;;;47.97;19.90;;;12.80;99.90;;;;;;5073073;28;20108;-80
2022/12/10 06:05:54;;;;;;;27.00;14.70;;;12.80;99.90;;;;;;5073466;28;20020;-79
2022/12/10 06:08:20;;;;;;;24.88;15.38;;;12.80;99.90;;;;;;5074977;28;20094;-80
2022/12/10 06:10:46;;;;;;;54.63;22.45;;;12.70;99.90;;;;;;5074717;28;20024;-80
2022/12/10 06:13:12;;;;;;;22.05;9.65;;;12.60;99.90;;;;;;5074683;28;20017;-80
2022/12/10 06:15:43;;;;;;;22.30;9.25;;;12.50;99.90;;;;;;5074297;28;20448;-80
2022/12/10 06:18:09;;;;;;;48.63;17.13;;;12.40;99.90;;;;;;5074442;28;20542;-80
2022/12/10 06:20:38;;;;;;;28.90;13.85;;;12.30;99.90;;;;;;5073415;28;20115;-80
2022/12/10 06:23:03;;;;;;;17.30;8.52;;;12.40;99.90;;;;;;5074081;28;20039;-80
2022/12/10 06:25:29;;;;;;;26.42;12.77;;;12.30;99.90;;;;;;5072991;28;20363;-79
2022/12/10 06:27:55;;;;;;;22.10;10.00;;;12.30;99.90;;;;;;5074439;28;20363;-79
2022/12/10 06:30:21;;;;;;;14.80;7.45;;;12.20;99.90;;;;;;5074466;28;20051;-79
2022/12/10 06:32:47;;;;;;;23.35;7.63;;;12.20;99.90;;;;;;5072904;28;20470;-79
2022/12/10 06:35:12;;;;;;;21.08;8.75;;;12.10;99.90;;;;;;5074064;28;20530;-80
2022/12/10 06:37:38;;;;;;;32.58;14.50;;;12.10;99.90;;;;;;5073941;28;20020;-80
2022/12/10 06:40:05;;;;;;;42.88;17.45;;;12.20;99.90;;;;;;5072720;28;20115;-79
2022/12/10 06:42:30;;;;;;;33.67;16.05;;;12.10;99.90;;;;;;5073849;28;20038;-79
2022/12/10 06:44:56;;;;;;;40.30;17.42;;;12.10;99.90;;;;;;5072920;28;20091;-79
2022/12/10 06:47:23;;;;;;;47.60;20.92;;;12.10;99.90;;;;;;5072627;28;20470;-79
2022/12/10 06:49:48;;;;;;;67.68;30.30;;;12.10;99.90;;;;;;5073766;28;20024;-79
2022/12/10 06:52:14;;;;;;;65.80;34.75;;;12.10;99.90;;;;;;5073727;28;20028;-79
2022/12/10 06:54:40;;;;;;;54.03;25.40;;;12.20;99.90;;;;;;5072611;28;20024;-79
2022/12/10 06:57:06;;;;;;;50.22;24.55;;;12.20;99.90;;;;;;5072581;28;20025;-80
2022/12/10 06:59:32;;;;;;;50.50;28.70;;;12.20;99.90;;;;;;5074128;28;20046;-78
2022/12/10 07:01:57;;;;;;;69.07;43.03;;;12.20;99.90;;;;;;5073998;28;20058;-79
2022/12/10 07:04:24;;;;;;;50.47;32.58;;;12.20;99.90;;;;;;5072272;28;20332;-79
2022/12/10 07:06:50;;;;;;;62.75;37.78;;;12.20;99.90;;;;;;5073705;28;20060;-79
2022/12/10 07:09:16;;;;;;;75.03;43.15;;;12.20;99.90;;;;;;5072563;28;20478;-79
2022/12/10 07:11:42;;;;;;;64.05;36.25;;;12.20;99.90;;;;;;5073717;28;20115;-79
2022/12/10 07:14:14;;;;;;;146.02;78.20;;;12.30;99.90;;;;;;5072283;28;20072;-80
2022/12/10 07:16:40;;;;;;;166.57;87.88;;;12.20;99.90;;;;;;5073697;28;20044;-79
2022/12/10 07:19:08;;;;;;;135.90;73.22;;;12.30;99.90;;;;;;5073672;28;20016;-80
2022/12/10 07:21:35;;;;;;;171.07;88.10;;;12.20;99.90;;;;;;5072184;28;20040;-79
2022/12/10 07:24:06;;;;;;;91.07;49.67;;;12.20;99.90;;;;;;5072427;28;20462;-79
2022/12/10 07:26:35;;;;;;;101.68;48.03;;;12.20;99.90;;;;;;5073958;28;20028;-80
2022/12/10 07:29:02;;;;;;;119.55;58.60;;;12.20;99.90;;;;;;5073188;28;20099;-80
2022/12/10 07:31:28;;;;;;;84.72;42.33;;;12.20;99.90;;;;;;5073567;28;20021;-80
2022/12/10 07:33:54;;;;;;;90.57;44.30;;;12.10;99.90;;;;;;5072282;28;20028;-79
2022/12/10 07:36:24;;;;;;;76.05;41.15;;;12.10;99.90;;;;;;5073722;28;20036;-79
2022/12/10 07:38:51;;;;;;;73.57;37.40;;;12.00;99.90;;;;;;5073904;28;20465;-79
2022/12/10 07:41:18;;;;;;;60.22;32.00;;;12.10;99.90;;;;;;5073369;28;20447;-79
2022/12/10 07:43:45;;;;;;;78.15;36.83;;;12.00;99.90;;;;;;5073846;28;20020;-79
2022/12/10 07:46:24;;;;;;;77.90;39.13;;;12.00;99.90;;;;;;5072059;28;20029;-80
2022/12/10 07:48:50;;;;;;;72.45;39.80;;;12.00;99.90;;;;;;5073406;28;20025;-80
2022/12/10 07:51:18;;;;;;;86.72;41.15;;;11.90;99.90;;;;;;5073155;28;20039;-79
2022/12/10 07:53:44;;;;;;;80.35;41.60;;;11.90;99.90;;;;;;5072106;28;20154;-80
2022/12/10 07:56:10;;;;;;;89.15;42.50;;;11.90;99.90;;;;;;5071956;28;20123;-80
2022/12/10 07:58:37;;;;;;;84.13;42.03;;;11.90;99.90;;;;;;5073422;28;20020;-80
2022/12/10 08:01:10;;;;;;;84.68;45.60;;;11.80;99.90;;;;;;5073245;28;20078;-80
2022/12/10 08:03:36;;;;;;;84.45;41.05;;;11.80;99.90;;;;;;5072846;28;20446;-79
2022/12/10 08:06:13;;;;;;;72.97;38.35;;;11.90;99.90;;;;;;5073027;28;20155;-79
2022/12/10 08:08:39;;;;;;;78.85;38.30;;;11.90;99.90;;;;;;5073240;28;20112;-80
2022/12/10 08:11:07;;;;;;;73.60;35.60;;;11.90;99.90;;;;;;5072687;28;20021;-79
2022/12/10 08:13:33;;;;;;;76.93;39.33;;;11.90;99.90;;;;;;5073504;28;20025;-79
2022/12/10 08:16:09;;;;;;;70.03;36.13;;;11.90;99.90;;;;;;5073108;28;20028;-79
2022/12/10 08:18:35;;;;;;;106.85;54.85;;;11.90;99.90;;;;;;5076262;28;20024;-80
2022/12/10 08:21:12;;;;;;;147.50;74.10;;;11.90;99.90;;;;;;5076417;28;20024;-80
2022/12/10 08:23:38;;;;;;;75.72;38.20;;;12.00;99.90;;;;;;5076597;28;20028;-80
2022/12/10 08:26:05;;;;;;;67.63;34.72;;;12.00;99.90;;;;;;5077020;28;20031;-80
2022/12/10 08:28:31;;;;;;;66.88;29.35;;;12.00;99.90;;;;;;5075282;28;20457;-79
2022/12/10 08:30:57;;;;;;;98.45;48.47;;;12.00;99.90;;;;;;5075465;28;20375;-80
2022/12/10 08:33:23;;;;;;;79.78;36.60;;;12.00;99.90;;;;;;5076342;28;20099;-79
2022/12/10 08:35:48;;;;;;;67.38;34.83;;;12.00;99.90;;;;;;5075144;28;20107;-80
2022/12/10 08:38:14;;;;;;;70.65;34.85;;;12.00;99.90;;;;;;5075963;28;20016;-80
2022/12/10 08:40:41;;;;;;;57.28;31.15;;;12.00;99.90;;;;;;5076465;28;20032;-79
2022/12/10 08:43:07;;;;;;;67.07;31.98;;;12.20;99.90;;;;;;5076310;28;20025;-80
2022/12/10 08:45:33;;;;;;;69.40;32.22;;;12.50;99.90;;;;;;5076200;28;20021;-80
2022/12/10 08:48:00;;;;;;;59.53;30.27;;;12.70;99.90;;;;;;5075825;28;20469;-80
2022/12/10 08:50:26;;;;;;;50.08;26.45;;;12.80;99.90;;;;;;5075625;28;20021;-80
2022/12/10 08:52:52;;;;;;;38.65;20.13;;;12.90;99.90;;;;;;5074524;28;20455;-79
2022/12/10 08:55:18;;;;;;;63.85;29.85;;;13.10;99.90;;;;;;5076176;28;20028;-79
2022/12/10 08:57:44;;;;;;;66.72;33.08;;;13.10;99.90;;;;;;5076595;28;20076;-78
2022/12/10 09:00:11;;;;;;;48.15;22.08;;;13.20;99.90;;;;;;5075155;28;20028;-78
2022/12/10 09:02:37;;;;;;;45.60;22.65;;;13.10;99.90;;;;;;5074874;28;20036;-79
2022/12/10 09:05:03;;;;;;;41.17;18.70;;;13.20;99.90;;;;;;5076263;28;20443;-78
2022/12/10 09:07:29;;;;;;;51.15;28.05;;;13.30;99.90;;;;;;5074482;28;20027;-79
2022/12/10 09:09:55;;;;;;;66.88;31.02;;;13.20;99.90;;;;;;5074497;28;20021;-79
2022/12/10 09:12:20;;;;;;;55.63;29.85;;;13.30;99.90;;;;;;5075302;28;20103;-78
2022/12/10 09:14:46;;;;;;;61.72;33.97;;;13.30;99.90;;;;;;5075626;28;20029;-78
2022/12/10 09:17:12;;;;;;;45.25;20.98;;;13.20;99.90;;;;;;5074126;28;20052;-78
2022/12/10 09:19:38;;;;;;;82.85;37.97;;;13.20;99.90;;;;;;5075731;28;20032;-78
2022/12/10 09:22:03;;;;;;;89.35;47.17;;;13.20;99.90;;;;;;5075752;28;20032;-78
2022/12/10 09:24:29;;;;;;;76.40;35.80;;;13.20;99.90;;;;;;5074568;28;20021;-78
2022/12/10 09:26:55;;;;;;;45.90;22.42;;;13.40;99.90;;;;;;5074224;28;20451;-78
2022/12/10 09:29:21;;;;;;;85.10;40.10;;;13.40;99.90;;;;;;5075193;28;20051;-78
2022/12/10 09:31:51;;;;;;;182.45;78.38;;;13.30;99.90;;;;;;5074425;28;20061;-79
2022/12/10 09:34:16;;;;;;;49.72;24.52;;;13.30;99.90;;;;;;5073520;28;20028;-79
2022/12/10 09:36:42;;;;;;;67.28;29.67;;;13.20;99.90;;;;;;5074181;28;20058;-78
2022/12/10 09:39:08;;;;;;;76.95;32.47;;;13.50;99.90;;;;;;5074024;28;20515;-80
2022/12/10 09:41:40;;;;;;;88.05;41.00;;;13.60;99.90;;;;;;5075099;28;20028;-79
2022/12/10 09:44:28;;;;;;;63.60;31.17;;;13.70;99.90;;;;;;5074274;28;20173;-78
2022/12/10 09:47:00;;;;;;;56.50;29.35;;;13.80;99.90;;;;;;5074999;28;20031;-78
2022/12/10 09:49:44;;;;;;;49.72;25.73;;;14.30;99.90;;;;;;5075057;28;20021;-79
2022/12/10 09:52:14;;;;;;;40.88;22.40;;;14.70;99.90;;;;;;5073377;28;20036;-80
2022/12/10 09:54:55;;;;;;;44.05;23.17;;;14.80;99.90;;;;;;5073719;28;20035;-78
2022/12/10 09:57:42;;;;;;;54.47;29.80;;;14.70;99.90;;;;;;5075219;28;20478;-79
2022/12/10 10:00:30;;;;;;;49.28;21.38;;;14.80;99.90;;;;;;5073548;28;20024;-79
2022/12/10 10:03:01;;;;;;;43.08;20.05;;;14.90;99.90;;;;;;5074683;28;20086;-79
2022/12/10 10:05:35;;;;;;;54.05;27.27;;;14.90;99.90;;;;;;5074859;28;20024;-78
2022/12/10 10:08:11;;;;;;;43.60;18.77;;;15.00;99.90;;;;;;5074501;28;20071;-78
2022/12/10 10:10:40;;;;;;;31.17;17.92;;;15.00;99.90;;;;;;5073186;28;20024;-79
2022/12/10 10:13:08;;;;;;;43.75;21.58;;;15.10;99.90;;;;;;5074586;28;20063;-80
2022/12/10 10:15:42;;;;;;;44.05;22.05;;;14.70;99.90;;;;;;5073208;28;20179;-80
2022/12/10 10:18:26;;;;;;;77.05;42.67;;;14.60;99.90;;;;;;5074992;28;20044;-80
2022/12/10 10:20:52;;;;;;;71.65;37.45;;;14.40;99.90;;;;;;5072819;28;20032;-79
2022/12/10 10:23:18;;;;;;;64.57;34.50;;;14.30;99.90;;;;;;5074312;28;20021;-79
2022/12/10 10:25:45;;;;;;;42.40;22.85;;;14.40;99.90;;;;;;5073247;28;20021;-79
2022/12/10 10:28:19;;;;;;;37.75;19.98;;;14.40;99.90;;;;;;5074276;28;20020;-79
2022/12/10 10:30:45;;;;;;;35.80;17.25;;;14.40;99.90;;;;;;5074163;28;20020;-80
2022/12/10 10:33:13;;;;;;;37.47;18.38;;;15.00;99.90;;;;;;5074317;28;20035;-79
2022/12/10 10:35:59;;;;;;;37.10;20.73;;;15.90;99.90;;;;;;5072906;28;20025;-79
2022/12/10 10:38:30;;;;;;;33.85;19.35;;;16.80;99.90;;;;;;5074448;28;20027;-78
2022/12/10 10:40:58;;;;;;;53.47;25.73;;;17.50;99.90;;;;;;5072342;28;20033;-79
2022/12/10 10:43:30;;;;;;;30.42;15.13;;;17.70;99.90;;;;;;5072722;28;20716;-76
2022/12/10 10:46:07;;;;;;;32.67;17.30;;;;;;;;;;5074237;28;20023;-77
2022/12/10 10:48:33;;;;;;;43.78;20.13;;;18.30;99.90;;;;;;5073974;28;20078;-78
2022/12/10 10:51:25;;;;;;;32.92;16.33;;;;;;;;;;5073489;28;20455;-78
2022/12/10 10:53:52;;;;;;;33.22;15.65;;;;;;;;;;5072750;28;20059;-79
2022/12/10 10:56:39;;;;;;;46.00;23.40;;;18.80;99.90;;;;;;5072612;28;20016;-78
2022/12/10 10:59:16;;;;;;;42.85;22.08;;;18.80;99.90;;;;;;5073829;28;20497;-79
2022/12/10 11:01:51;;;;;;;39.42;21.70;;;18.70;99.90;;;;;;5072658;28;20024;-77
2022/12/10 11:04:22;;;;;;;35.92;20.35;;;18.80;99.90;;;;;;5073613;28;20358;-78
2022/12/10 11:06:49;;;;;;;;;;;18.70;99.90;;;;;;5073294;28;20016;-78
2022/12/10 11:09:27;;;;;;;75.70;38.25;;;18.50;99.90;;;;;;5072525;28;19954;-78
2022/12/10 11:12:00;;;;;;;71.00;43.00;;;18.30;99.90;;;;;;5072341;28;20451;-78
2022/12/10 11:14:46;;;;;;;45.92;20.30;;;18.40;99.90;;;;;;5073926;28;20043;-78
2022/12/10 11:17:15;;;;;;;46.17;18.67;;;18.50;99.90;;;;;;5073296;28;20052;-79
2022/12/10 11:19:53;;;;;;;51.50;24.40;;;18.20;99.90;;;;;;5073897;28;20021;-79
2022/12/10 11:22:23;;;;;;;69.43;36.70;;;18.20;99.90;;;;;;5073741;28;20031;-79
2022/12/10 11:24:50;;;;;;;114.60;57.90;;;18.00;99.90;;;;;;5073539;28;20043;-78
2022/12/10 11:27:49;;;;;;;37.60;20.38;;;17.70;99.90;;;;;;5072194;28;20028;-79
2022/12/10 11:30:23;;;;;;;83.70;45.33;;;17.40;99.90;;;;;;5073312;28;20029;-78
2022/12/10 11:33:06;;;;;;;82.15;47.13;;;17.00;99.90;;;;;;5073770;28;20032;-79
2022/12/10 11:36:01;;;;;;;76.38;40.85;;;16.90;99.90;;;;;;5073351;28;20108;-78
2022/12/10 11:38:42;;;;;;;50.30;25.77;;;16.80;99.90;;;;;;5073117;28;20017;-78
2022/12/10 11:41:17;;;;;;;105.35;57.47;;;16.50;99.90;;;;;;5072094;28;20115;-78
2022/12/10 11:44:11;;;;;;;66.40;33.03;;;16.20;99.90;;;;;;5073565;28;20020;-78
2022/12/10 11:46:55;;;;;;;103.80;49.58;;;16.00;99.90;;;;;;5073743;28;20028;-78
2022/12/10 11:49:40;;;;;;;98.57;52.33;;;16.00;99.90;;;;;;5073441;28;20097;-79
2022/12/10 11:52:30;;;;;;;98.93;48.65;;;15.80;99.90;;;;;;5074691;28;20020;-78
2022/12/10 11:55:16;;;;;;;108.00;50.78;;;15.80;99.90;;;;;;5077247;28;20021;-78
2022/12/10 11:58:20;;;;;;;169.05;88.75;;;15.80;99.90;;;;;;5077532;28;20023;-81
2022/12/10 12:00:48;;;;;;;154.50;75.53;;;15.70;99.90;;;;;;5075831;28;20523;-78
2022/12/10 12:03:28;;;;;;;132.75;62.80;;;15.60;99.90;;;;;;5075903;28;20078;-79
2022/12/10 12:06:12;;;;;;;221.95;124.50;;;15.60;99.90;;;;;;5077035;28;20048;-78
2022/12/10 12:09:04;;;;;;;144.57;83.72;;;15.50;99.90;;;;;;5075577;28;20055;-78
2022/12/10 12:11:56;;;;;;;185.50;96.53;;;15.50;99.90;;;;;;5076513;28;20048;-79
2022/12/10 12:14:41;;;;;;;117.88;63.05;;;15.60;99.90;;;;;;5075628;28;20020;-78
2022/12/10 12:17:33;;;;;;;103.75;58.17;;;15.50;99.90;;;;;;5075635;28;20048;-78
2022/12/10 12:20:14;;;;;;;109.45;55.50;;;15.50;99.90;;;;;;5074772;28;20035;-79
2022/12/10 12:22:47;;;;;;;135.65;74.80;;;15.50;99.90;;;;;;5075529;28;20482;-78
2022/12/10 12:25:24;;;;;;;84.47;41.17;;;15.50;99.90;;;;;;5076544;28;20028;-78
2022/12/10 12:28:06;;;;;;;73.15;39.15;;;15.40;99.90;;;;;;5076931;28;20020;-80
2022/12/10 12:30:34;;;;;;;73.75;37.95;;;15.40;99.90;;;;;;5076703;28;20435;-78
2022/12/10 12:33:25;;;;;;;86.38;38.95;;;15.40;99.90;;;;;;5076588;28;20067;-78
2022/12/10 12:36:09;;;;;;;81.38;38.03;;;15.40;99.90;;;;;;5076464;28;20077;-78
2022/12/10 12:39:06;;;;;;;69.82;36.05;;;15.30;99.90;;;;;;5076583;28;20019;-79
2022/12/10 12:41:44;;;;;;;57.90;29.23;;;15.30;99.90;;;;;;5068484;28;20128;-78
2022/12/10 12:44:25;;;;;;;143.52;71.78;;;15.20;99.90;;;;;;5075117;28;20047;-77
2022/12/10 12:46:52;;;;;;;276.95;129.23;;;15.20;99.90;;;;;;5076066;28;20516;-78
2022/12/10 12:49:34;;;;;;;147.48;71.68;;;15.20;99.90;;;;;;5074874;28;20478;-79
2022/12/10 12:52:15;;;;;;;110.28;53.50;;;15.20;99.90;;;;;;5076300;28;20025;-79
2022/12/10 12:54:41;;;;;;;149.57;74.55;;;15.10;99.90;;;;;;5076524;28;20116;-77